sensor_id;sensor_type;location;lat;lon;timestamp;pressure;altitude;pressure_sealevel;temperature;humidity
33191;BME280;19554;42.652;23.364;2022-11-14T00:00:42;95734.31;;;6.78;67.90
33191;BME280;19554;42.652;23.364;2022-11-14T00:03:09;95714.47;;;6.69;68.33
33191;BME280;19554;42.652;23.364;2022-11-14T00:05:39;95734.63;;;6.82;67.71
33191;BME280;19554;42.652;23.364;2022-11-14T00:08:05;95726.69;;;6.82;68.34
33191;BME280;19554;42.652;23.364;2022-11-14T00:10:30;95682.91;;;6.56;68.44
33191;BME280;19554;42.652;23.364;2022-11-14T00:12:55;95718.84;;;6.75;68.76
33191;BME280;19554;42.652;23.364;2022-11-14T00:15:21;95622.38;;;6.24;68.63
33191;BME280;19554;42.652;23.364;2022-11-14T00:17:46;95731.47;;;6.97;68.31
33191;BME280;19554;42.652;23.364;2022-11-14T00:20:12;95724.06;;;6.99;67.57
33191;BME280;19554;42.652;23.364;2022-11-14T00:22:37;95712.47;;;6.88;66.69
33191;BME280;19554;42.652;23.364;2022-11-14T00:25:03;95735.16;;;6.96;66.15
33191;BME280;19554;42.652;23.364;2022-11-14T00:27:29;95715.34;;;6.86;65.88
33191;BME280;19554;42.652;23.364;2022-11-14T00:29:54;95732.25;;;6.97;66.25
33191;BME280;19554;42.652;23.364;2022-11-14T00:32:20;95738.06;;;6.94;65.24
33191;BME280;19554;42.652;23.364;2022-11-14T00:34:47;95707.91;;;6.72;65.33
33191;BME280;19554;42.652;23.364;2022-11-14T00:37:13;95732.91;;;6.87;65.82
33191;BME280;19554;42.652;23.364;2022-11-14T00:39:39;95710.41;;;6.78;66.26
33191;BME280;19554;42.652;23.364;2022-11-14T00:42:04;95685.00;;;6.54;65.66
33191;BME280;19554;42.652;23.364;2022-11-14T00:44:30;95696.09;;;6.51;66.37
33191;BME280;19554;42.652;23.364;2022-11-14T00:46:55;95654.19;;;6.24;67.15
33191;BME280;19554;42.652;23.364;2022-11-14T00:49:20;95711.53;;;6.54;66.96
33191;BME280;19554;42.652;23.364;2022-11-14T00:51:46;95659.41;;;6.19;66.83
33191;BME280;19554;42.652;23.364;2022-11-14T00:54:11;95731.31;;;6.63;66.91
33191;BME280;19554;42.652;23.364;2022-11-14T00:56:36;95722.81;;;6.61;66.28
33191;BME280;19554;42.652;23.364;2022-11-14T00:59:02;95731.31;;;6.63;66.45
33191;BME280;19554;42.652;23.364;2022-11-14T01:01:27;95666.06;;;6.22;65.62
33191;BME280;19554;42.652;23.364;2022-11-14T01:03:53;95702.56;;;6.43;65.99
33191;BME280;19554;42.652;23.364;2022-11-14T01:06:19;95660.41;;;6.18;66.48
33191;BME280;19554;42.652;23.364;2022-11-14T01:08:44;95726.97;;;6.57;66.82
33191;BME280;19554;42.652;23.364;2022-11-14T01:11:15;95702.66;;;6.48;67.12
33191;BME280;19554;42.652;23.364;2022-11-14T01:13:41;95721.69;;;6.57;66.97
33191;BME280;19554;42.652;23.364;2022-11-14T01:16:08;95722.81;;;6.61;67.44
33191;BME280;19554;42.652;23.364;2022-11-14T01:18:34;95725.69;;;6.59;68.32
33191;BME280;19554;42.652;23.364;2022-11-14T01:21:03;95690.78;;;6.39;68.82
33191;BME280;19554;42.652;23.364;2022-11-14T01:23:28;95698.97;;;6.49;69.44
33191;BME280;19554;42.652;23.364;2022-11-14T01:26:03;95711.41;;;6.60;69.75
33191;BME280;19554;42.652;23.364;2022-11-14T01:28:29;95656.94;;;6.29;69.83
33191;BME280;19554;42.652;23.364;2022-11-14T01:30:54;95697.44;;;6.65;69.49
33191;BME280;19554;42.652;23.364;2022-11-14T01:33:20;95670.84;;;6.48;69.31
33191;BME280;19554;42.652;23.364;2022-11-14T01:35:45;95695.91;;;6.69;68.74
33191;BME280;19554;42.652;23.364;2022-11-14T01:38:13;95692.91;;;6.65;67.56
33191;BME280;19554;42.652;23.364;2022-11-14T01:40:45;95694.09;;;6.58;65.30
33191;BME280;19554;42.652;23.364;2022-11-14T01:43:24;95698.16;;;6.49;64.72
33191;BME280;19554;42.652;23.364;2022-11-14T01:46:11;95690.31;;;6.42;64.99
33191;BME280;19554;42.652;23.364;2022-11-14T01:48:46;95687.81;;;6.35;65.54
33191;BME280;19554;42.652;23.364;2022-11-14T01:53:47;95656.88;;;6.12;64.94
33191;BME280;19554;42.652;23.364;2022-11-14T01:56:17;95685.53;;;6.27;64.64
33191;BME280;19554;42.652;23.364;2022-11-14T01:58:48;95676.44;;;6.23;64.66
33191;BME280;19554;42.652;23.364;2022-11-14T02:01:14;95672.16;;;6.22;65.09
33191;BME280;19554;42.652;23.364;2022-11-14T02:03:41;95677.47;;;6.22;65.25
33191;BME280;19554;42.652;23.364;2022-11-14T02:06:10;95532.91;;;5.27;64.97
33191;BME280;19554;42.652;23.364;2022-11-14T02:08:37;95672.53;;;6.26;65.14
33191;BME280;19554;42.652;23.364;2022-11-14T02:11:04;95671.69;;;6.25;65.64
33191;BME280;19554;42.652;23.364;2022-11-14T02:13:29;95620.94;;;5.93;65.61
33191;BME280;19554;42.652;23.364;2022-11-14T02:15:55;95668.38;;;6.18;65.33
33191;BME280;19554;42.652;23.364;2022-11-14T02:18:20;95632.34;;;5.93;65.29
33191;BME280;19554;42.652;23.364;2022-11-14T02:20:46;95678.41;;;6.16;65.51
33191;BME280;19554;42.652;23.364;2022-11-14T02:23:11;95676.78;;;6.15;65.81
33191;BME280;19554;42.652;23.364;2022-11-14T02:25:38;95672.06;;;6.17;67.10
33191;BME280;19554;42.652;23.364;2022-11-14T02:28:06;95598.47;;;5.72;67.87
33191;BME280;19554;42.652;23.364;2022-11-14T02:30:33;95674.25;;;6.20;67.65
33191;BME280;19554;42.652;23.364;2022-11-14T02:32:59;95669.50;;;6.22;67.73
33191;BME280;19554;42.652;23.364;2022-11-14T02:35:24;95574.97;;;5.64;67.78
33191;BME280;19554;42.652;23.364;2022-11-14T02:37:49;95669.75;;;6.21;67.40
33191;BME280;19554;42.652;23.364;2022-11-14T02:40:15;95670.34;;;6.23;67.14
33191;BME280;19554;42.652;23.364;2022-11-14T02:42:40;95615.41;;;5.94;67.49
33191;BME280;19554;42.652;23.364;2022-11-14T02:45:06;95671.22;;;6.28;67.49
33191;BME280;19554;42.652;23.364;2022-11-14T02:47:32;95643.38;;;6.14;67.20
33191;BME280;19554;42.652;23.364;2022-11-14T02:49:57;95654.19;;;6.24;66.14
33191;BME280;19554;42.652;23.364;2022-11-14T02:52:23;95662.03;;;6.19;64.47
33191;BME280;19554;42.652;23.364;2022-11-14T02:54:48;95661.72;;;6.15;64.07
33191;BME280;19554;42.652;23.364;2022-11-14T02:57:13;95600.31;;;5.60;62.58
33191;BME280;19554;42.652;23.364;2022-11-14T02:59:39;95669.19;;;6.07;65.16
33191;BME280;19554;42.652;23.364;2022-11-14T03:02:04;95657.00;;;6.06;65.96
33191;BME280;19554;42.652;23.364;2022-11-14T03:04:29;95657.44;;;6.03;66.14
33191;BME280;19554;42.652;23.364;2022-11-14T03:06:55;95579.03;;;5.43;67.40
33191;BME280;19554;42.652;23.364;2022-11-14T03:09:20;95660.91;;;5.68;65.25
33191;BME280;19554;42.652;23.364;2022-11-14T03:11:46;95596.41;;;5.04;66.44
33191;BME280;19554;42.652;23.364;2022-11-14T03:14:11;95667.53;;;5.23;68.03
33191;BME280;19554;42.652;23.364;2022-11-14T03:16:37;95593.69;;;4.38;68.44
33191;BME280;19554;42.652;23.364;2022-11-14T03:19:02;95664.31;;;4.49;73.33
33191;BME280;19554;42.652;23.364;2022-11-14T03:21:28;95648.03;;;4.16;74.91
33191;BME280;19554;42.652;23.364;2022-11-14T03:23:53;95491.56;;;3.17;75.82
33191;BME280;19554;42.652;23.364;2022-11-14T03:26:19;95615.19;;;4.12;75.49
33191;BME280;19554;42.652;23.364;2022-11-14T03:28:44;95588.13;;;3.98;75.43
33191;BME280;19554;42.652;23.364;2022-11-14T03:31:11;95661.34;;;4.58;74.90
33191;BME280;19554;42.652;23.364;2022-11-14T03:33:37;95665.66;;;4.70;73.86
33191;BME280;19554;42.652;23.364;2022-11-14T03:36:03;95620.75;;;4.52;73.08
33191;BME280;19554;42.652;23.364;2022-11-14T03:38:29;95661.44;;;4.81;73.18
33191;BME280;19554;42.652;23.364;2022-11-14T03:40:56;95657.41;;;4.79;72.85
33191;BME280;19554;42.652;23.364;2022-11-14T03:43:22;95660.28;;;4.77;73.22
33191;BME280;19554;42.652;23.364;2022-11-14T03:45:47;95657.50;;;4.72;73.76
33191;BME280;19554;42.652;23.364;2022-11-14T03:48:13;95546.66;;;3.98;74.24
33191;BME280;19554;42.652;23.364;2022-11-14T03:50:40;95674.28;;;4.66;74.82
33191;BME280;19554;42.652;23.364;2022-11-14T03:53:05;95587.06;;;4.17;75.23
33191;BME280;19554;42.652;23.364;2022-11-14T03:55:32;95560.47;;;4.00;75.59
33191;BME280;19554;42.652;23.364;2022-11-14T03:57:57;95600.03;;;4.19;75.74
33191;BME280;19554;42.652;23.364;2022-11-14T04:00:23;95608.13;;;4.24;76.21
33191;BME280;19554;42.652;23.364;2022-11-14T04:02:48;95652.41;;;4.59;76.19
33191;BME280;19554;42.652;23.364;2022-11-14T04:05:13;95625.25;;;4.51;75.97
33191;BME280;19554;42.652;23.364;2022-11-14T04:07:39;95658.22;;;4.79;75.51
33191;BME280;19554;42.652;23.364;2022-11-14T04:10:05;95640.72;;;4.78;74.39
33191;BME280;19554;42.652;23.364;2022-11-14T04:12:31;95627.81;;;4.70;72.41
33191;BME280;19554;42.652;23.364;2022-11-14T04:14:56;95652.75;;;4.92;70.88
33191;BME280;19554;42.652;23.364;2022-11-14T04:17:21;95654.34;;;4.93;70.11
33191;BME280;19554;42.652;23.364;2022-11-14T04:19:47;95649.06;;;4.93;69.42
33191;BME280;19554;42.652;23.364;2022-11-14T04:22:12;95628.19;;;4.73;69.32
33191;BME280;19554;42.652;23.364;2022-11-14T04:24:38;95597.53;;;4.54;68.79
33191;BME280;19554;42.652;23.364;2022-11-14T04:27:03;95615.75;;;4.62;68.46
33191;BME280;19554;42.652;23.364;2022-11-14T04:29:28;95650.41;;;4.84;68.95
33191;BME280;19554;42.652;23.364;2022-11-14T04:31:54;95623.00;;;4.67;68.92
33191;BME280;19554;42.652;23.364;2022-11-14T04:34:19;95621.59;;;4.64;68.52
33191;BME280;19554;42.652;23.364;2022-11-14T04:36:45;95623.00;;;4.67;68.09
33191;BME280;19554;42.652;23.364;2022-11-14T04:39:10;95646.38;;;4.82;67.40
33191;BME280;19554;42.652;23.364;2022-11-14T04:41:35;95647.19;;;4.82;67.65
33191;BME280;19554;42.652;23.364;2022-11-14T04:44:01;95564.56;;;4.26;67.41
33191;BME280;19554;42.652;23.364;2022-11-14T04:46:26;95593.69;;;4.38;67.03
33191;BME280;19554;42.652;23.364;2022-11-14T04:48:52;95619.72;;;4.53;67.42
33191;BME280;19554;42.652;23.364;2022-11-14T04:51:17;95620.63;;;4.47;67.89
33191;BME280;19554;42.652;23.364;2022-11-14T04:53:42;95634.91;;;4.58;68.35
33191;BME280;19554;42.652;23.364;2022-11-14T04:56:08;95578.81;;;4.25;68.53
33191;BME280;19554;42.652;23.364;2022-11-14T04:58:33;95487.72;;;3.68;68.39
33191;BME280;19554;42.652;23.364;2022-11-14T05:00:58;95613.72;;;4.46;68.19
33191;BME280;19554;42.652;23.364;2022-11-14T05:03:24;95540.94;;;4.01;67.87
33191;BME280;19554;42.652;23.364;2022-11-14T05:05:50;95642.97;;;4.63;67.84
33191;BME280;19554;42.652;23.364;2022-11-14T05:08:15;95644.81;;;4.62;67.72
33191;BME280;19554;42.652;23.364;2022-11-14T05:10:44;95649.88;;;4.64;67.80
33191;BME280;19554;42.652;23.364;2022-11-14T05:13:11;95612.31;;;4.43;67.62
33191;BME280;19554;42.652;23.364;2022-11-14T05:15:37;95646.06;;;4.60;67.30
33191;BME280;19554;42.652;23.364;2022-11-14T05:18:02;95641.91;;;4.52;67.25
33191;BME280;19554;42.652;23.364;2022-11-14T05:20:28;95643.25;;;4.43;67.64
33191;BME280;19554;42.652;23.364;2022-11-14T05:22:54;95642.28;;;4.37;67.68
33191;BME280;19554;42.652;23.364;2022-11-14T05:25:21;95650.13;;;4.14;68.86
33191;BME280;19554;42.652;23.364;2022-11-14T05:27:46;95622.97;;;3.70;71.68
33191;BME280;19554;42.652;23.364;2022-11-14T05:30:12;95659.34;;;3.86;72.54
33191;BME280;19554;42.652;23.364;2022-11-14T05:32:37;95594.38;;;3.42;73.24
33191;BME280;19554;42.652;23.364;2022-11-14T05:35:03;95660.06;;;3.75;74.08
33191;BME280;19554;42.652;23.364;2022-11-14T05:37:29;95668.41;;;3.72;75.31
33191;BME280;19554;42.652;23.364;2022-11-14T05:39:54;95619.22;;;3.59;73.36
33191;BME280;19554;42.652;23.364;2022-11-14T05:42:20;95646.28;;;3.91;71.41
33191;BME280;19554;42.652;23.364;2022-11-14T05:44:45;95656.28;;;4.08;70.24
33191;BME280;19554;42.652;23.364;2022-11-14T05:47:11;95658.53;;;4.22;69.94
33191;BME280;19554;42.652;23.364;2022-11-14T05:49:36;95661.34;;;4.27;69.64
33191;BME280;19554;42.652;23.364;2022-11-14T05:52:01;95670.91;;;4.40;69.48
33191;BME280;19554;42.652;23.364;2022-11-14T05:54:27;95642.88;;;4.39;69.30
33191;BME280;19554;42.652;23.364;2022-11-14T05:56:52;95671.47;;;4.61;68.65
33191;BME280;19554;42.652;23.364;2022-11-14T05:59:17;95653.56;;;4.63;68.31
33191;BME280;19554;42.652;23.364;2022-11-14T06:01:43;95671.22;;;4.81;68.35
33191;BME280;19554;42.652;23.364;2022-11-14T06:04:08;95658.34;;;4.84;68.17
33191;BME280;19554;42.652;23.364;2022-11-14T06:06:33;95665.50;;;4.95;68.70
33191;BME280;19554;42.652;23.364;2022-11-14T06:08:59;95671.03;;;5.06;68.77
33191;BME280;19554;42.652;23.364;2022-11-14T06:11:24;95676.84;;;5.14;68.83
33191;BME280;19554;42.652;23.364;2022-11-14T06:13:50;95671.00;;;5.24;68.99
33191;BME280;19554;42.652;23.364;2022-11-14T06:16:17;95673.75;;;5.29;69.42
33191;BME280;19554;42.652;23.364;2022-11-14T06:18:43;95669.16;;;5.36;69.63
33191;BME280;19554;42.652;23.364;2022-11-14T06:21:14;95683.56;;;5.52;69.46
33191;BME280;19554;42.652;23.364;2022-11-14T06:23:40;95678.63;;;5.56;69.58
33191;BME280;19554;42.652;23.364;2022-11-14T06:26:09;95620.34;;;5.20;69.95
33191;BME280;19554;42.652;23.364;2022-11-14T06:28:36;95645.47;;;5.41;70.53
33191;BME280;19554;42.652;23.364;2022-11-14T06:31:03;95688.19;;;5.68;70.50
33191;BME280;19554;42.652;23.364;2022-11-14T06:33:32;95684.03;;;5.73;70.27
33191;BME280;19554;42.652;23.364;2022-11-14T06:36:08;95659.63;;;5.59;70.03
33191;BME280;19554;42.652;23.364;2022-11-14T06:38:35;95676.56;;;5.81;70.38
33191;BME280;19554;42.652;23.364;2022-11-14T06:43:36;95663.88;;;5.83;70.28
33191;BME280;19554;42.652;23.364;2022-11-14T06:46:02;95620.59;;;5.66;69.91
33191;BME280;19554;42.652;23.364;2022-11-14T06:48:29;95633.22;;;5.87;69.75
33191;BME280;19554;42.652;23.364;2022-11-14T06:50:55;95671.94;;;6.12;69.76
33191;BME280;19554;42.652;23.364;2022-11-14T06:53:21;95660.09;;;6.03;69.63
33191;BME280;19554;42.652;23.364;2022-11-14T06:58:19;95634.19;;;5.81;70.17
33191;BME280;19554;42.652;23.364;2022-11-14T07:00:44;95661.00;;;5.73;70.58
33191;BME280;19554;42.652;23.364;2022-11-14T07:03:09;95620.81;;;5.29;71.45
33191;BME280;19554;42.652;23.364;2022-11-14T07:05:35;95656.75;;;5.37;72.01
33191;BME280;19554;42.652;23.364;2022-11-14T07:08:00;95535.09;;;4.41;72.67
33191;BME280;19554;42.652;23.364;2022-11-14T07:10:26;95619.06;;;5.11;72.90
33191;BME280;19554;42.652;23.364;2022-11-14T07:12:51;95655.84;;;5.55;72.53
33191;BME280;19554;42.652;23.364;2022-11-14T07:15:16;95611.03;;;5.30;72.40
33191;BME280;19554;42.652;23.364;2022-11-14T07:17:42;95668.94;;;5.50;72.68
33191;BME280;19554;42.652;23.364;2022-11-14T07:20:07;95664.44;;;5.50;72.91
33191;BME280;19554;42.652;23.364;2022-11-14T07:22:33;95643.38;;;5.43;73.47
33191;BME280;19554;42.652;23.364;2022-11-14T07:24:58;95667.91;;;5.74;72.95
33191;BME280;19554;42.652;23.364;2022-11-14T07:27:24;95661.34;;;5.88;72.44
33191;BME280;19554;42.652;23.364;2022-11-14T07:29:49;95658.50;;;6.02;72.05
33191;BME280;19554;42.652;23.364;2022-11-14T07:32:14;95652.38;;;6.13;71.57
33191;BME280;19554;42.652;23.364;2022-11-14T07:34:40;95643.03;;;6.10;71.30
33191;BME280;19554;42.652;23.364;2022-11-14T07:37:05;95648.06;;;6.24;71.00
33191;BME280;19554;42.652;23.364;2022-11-14T07:39:30;95655.06;;;6.41;70.81
33191;BME280;19554;42.652;23.364;2022-11-14T07:41:56;95632.25;;;6.40;70.51
33191;BME280;19554;42.652;23.364;2022-11-14T07:44:21;95639.19;;;6.58;70.21
33191;BME280;19554;42.652;23.364;2022-11-14T07:46:46;95638.59;;;6.68;70.05
33191;BME280;19554;42.652;23.364;2022-11-14T07:49:14;95588.75;;;6.41;69.66
33191;BME280;19554;42.652;23.364;2022-11-14T07:51:39;95550.53;;;6.09;69.24
33191;BME280;19554;42.652;23.364;2022-11-14T07:54:05;95650.34;;;6.72;69.45
33191;BME280;19554;42.652;23.364;2022-11-14T07:56:30;95566.63;;;6.19;69.66
33191;BME280;19554;42.652;23.364;2022-11-14T07:58:57;95641.31;;;6.73;69.14
33191;BME280;19554;42.652;23.364;2022-11-14T08:01:22;95644.94;;;6.67;69.52
33191;BME280;19554;42.652;23.364;2022-11-14T08:03:48;95635.50;;;6.59;69.87
33191;BME280;19554;42.652;23.364;2022-11-14T08:06:15;95650.66;;;6.76;69.42
33191;BME280;19554;42.652;23.364;2022-11-14T08:08:40;95644.41;;;6.82;69.29
33191;BME280;19554;42.652;23.364;2022-11-14T08:11:06;95577.59;;;6.39;69.09
33191;BME280;19554;42.652;23.364;2022-11-14T08:13:32;95645.31;;;6.59;69.95
33191;BME280;19554;42.652;23.364;2022-11-14T08:15:57;95649.41;;;6.38;70.70
33191;BME280;19554;42.652;23.364;2022-11-14T08:18:24;95637.50;;;6.52;71.01
33191;BME280;19554;42.652;23.364;2022-11-14T08:20:50;95635.50;;;6.59;71.25
33191;BME280;19554;42.652;23.364;2022-11-14T08:23:15;95633.94;;;6.75;70.77
33191;BME280;19554;42.652;23.364;2022-11-14T08:25:40;95639.25;;;6.75;70.97
33191;BME280;19554;42.652;23.364;2022-11-14T08:28:06;95639.72;;;6.72;71.15
33191;BME280;19554;42.652;23.364;2022-11-14T08:30:32;95634.59;;;6.82;71.13
33191;BME280;19554;42.652;23.364;2022-11-14T08:33:00;95618.63;;;6.65;70.64
33191;BME280;19554;42.652;23.364;2022-11-14T08:35:27;95604.84;;;6.23;72.27
33191;BME280;19554;42.652;23.364;2022-11-14T08:37:53;95633.94;;;6.75;71.57
33191;BME280;19554;42.652;23.364;2022-11-14T08:40:18;95640.66;;;6.66;71.83
33191;BME280;19554;42.652;23.364;2022-11-14T08:42:43;95632.06;;;6.87;71.30
33191;BME280;19554;42.652;23.364;2022-11-14T08:45:09;95624.34;;;7.03;70.70
33191;BME280;19554;42.652;23.364;2022-11-14T08:47:34;95629.34;;;7.16;70.75
33191;BME280;19554;42.652;23.364;2022-11-14T08:50:00;95618.06;;;7.09;69.97
33191;BME280;19554;42.652;23.364;2022-11-14T08:52:25;95625.09;;;7.15;69.87
33191;BME280;19554;42.652;23.364;2022-11-14T08:54:50;95594.31;;;6.85;69.83
33191;BME280;19554;42.652;23.364;2022-11-14T08:57:16;95619.31;;;7.18;69.85
33191;BME280;19554;42.652;23.364;2022-11-14T08:59:41;95614.03;;;7.06;70.28
33191;BME280;19554;42.652;23.364;2022-11-14T09:02:11;95613.38;;;6.82;71.13
33191;BME280;19554;42.652;23.364;2022-11-14T09:04:38;95612.06;;;6.39;73.04
33191;BME280;19554;42.652;23.364;2022-11-14T09:07:03;95565.09;;;6.52;72.56
33191;BME280;19554;42.652;23.364;2022-11-14T09:09:28;95582.19;;;6.89;71.27
33191;BME280;19554;42.652;23.364;2022-11-14T09:11:54;95597.91;;;7.08;70.75
33191;BME280;19554;42.652;23.364;2022-11-14T09:14:19;95601.88;;;6.94;70.84
33191;BME280;19554;42.652;23.364;2022-11-14T09:16:48;95555.41;;;6.74;71.20
33191;BME280;19554;42.652;23.364;2022-11-14T09:19:13;95559.94;;;6.91;71.42
33191;BME280;19554;42.652;23.364;2022-11-14T09:21:39;95582.34;;;7.00;71.84
33191;BME280;19554;42.652;23.364;2022-11-14T09:24:04;95573.84;;;7.15;71.32
33191;BME280;19554;42.652;23.364;2022-11-14T09:26:30;95583.63;;;7.48;70.82
33191;BME280;19554;42.652;23.364;2022-11-14T09:28:55;95553.50;;;7.59;69.64
33191;BME280;19554;42.652;23.364;2022-11-14T09:31:21;95538.75;;;7.68;69.10
33191;BME280;19554;42.652;23.364;2022-11-14T09:33:46;95579.00;;;7.99;68.65
33191;BME280;19554;42.652;23.364;2022-11-14T09:36:12;95514.47;;;7.81;68.08
33191;BME280;19554;42.652;23.364;2022-11-14T09:38:42;95562.56;;;8.24;67.61
33191;BME280;19554;42.652;23.364;2022-11-14T09:46:39;95561.75;;;8.45;66.61
33191;BME280;19554;42.652;23.364;2022-11-14T09:49:25;95533.09;;;8.30;66.29
33191;BME280;19554;42.652;23.364;2022-11-14T09:52:00;95556.72;;;8.49;66.71
33191;BME280;19554;42.652;23.364;2022-11-14T09:54:34;95546.78;;;8.66;65.91
33191;BME280;19554;42.652;23.364;2022-11-14T09:57:02;95550.06;;;8.78;65.61
33191;BME280;19554;42.652;23.364;2022-11-14T09:59:28;95552.41;;;8.43;67.22
33191;BME280;19554;42.652;23.364;2022-11-14T10:02:15;95554.22;;;8.64;66.45
33191;BME280;19554;42.652;23.364;2022-11-14T10:15:30;95482.81;;;8.29;66.42
33191;BME280;19554;42.652;23.364;2022-11-14T10:18:02;95517.41;;;8.56;66.81
33191;BME280;19554;42.652;23.364;2022-11-14T10:31:41;95502.72;;;8.81;65.84
33191;BME280;19554;42.652;23.364;2022-11-14T10:34:31;95461.22;;;8.25;66.89
33191;BME280;19554;42.652;23.364;2022-11-14T10:39:54;95490.16;;;8.44;67.50
33191;BME280;19554;42.652;23.364;2022-11-14T10:42:38;95479.84;;;8.25;68.10
33191;BME280;19554;42.652;23.364;2022-11-14T10:45:34;95479.81;;;8.47;67.95
33191;BME280;19554;42.652;23.364;2022-11-14T10:48:08;95478.19;;;8.73;66.78
33191;BME280;19554;42.652;23.364;2022-11-14T10:53:27;95455.91;;;8.85;66.46
33191;BME280;19554;42.652;23.364;2022-11-14T10:55:54;95426.31;;;8.81;65.94
33191;BME280;19554;42.652;23.364;2022-11-14T10:58:20;95404.81;;;8.88;65.89
33191;BME280;19554;42.652;23.364;2022-11-14T11:00:46;95454.00;;;9.22;65.36
33191;BME280;19554;42.652;23.364;2022-11-14T11:03:11;95453.00;;;9.29;65.70
33191;BME280;19554;42.652;23.364;2022-11-14T11:05:57;95450.38;;;9.34;65.34
33191;BME280;19554;42.652;23.364;2022-11-14T11:08:23;95448.22;;;9.36;65.30
33191;BME280;19554;42.652;23.364;2022-11-14T11:11:26;95443.97;;;9.35;65.42
33191;BME280;19554;42.652;23.364;2022-11-14T11:13:57;95439.47;;;9.40;65.34
33191;BME280;19554;42.652;23.364;2022-11-14T11:16:26;95443.97;;;9.40;65.46
33191;BME280;19554;42.652;23.364;2022-11-14T11:18:52;95447.19;;;9.42;65.25
33191;BME280;19554;42.652;23.364;2022-11-14T11:21:19;95430.88;;;9.28;65.58
33191;BME280;19554;42.652;23.364;2022-11-14T11:23:54;95440.78;;;9.38;65.61
33191;BME280;19554;42.652;23.364;2022-11-14T11:26:23;95435.94;;;9.24;66.16
33191;BME280;19554;42.652;23.364;2022-11-14T11:34:13;95425.22;;;9.14;66.77
33191;BME280;19554;42.652;23.364;2022-11-14T11:36:44;95420.38;;;9.06;67.05
33191;BME280;19554;42.652;23.364;2022-11-14T11:39:22;95429.97;;;9.07;67.35
33191;BME280;19554;42.652;23.364;2022-11-14T11:41:50;95434.16;;;8.98;67.63
33191;BME280;19554;42.652;23.364;2022-11-14T11:44:20;95429.41;;;9.00;67.95
33191;BME280;19554;42.652;23.364;2022-11-14T11:47:00;95427.84;;;9.09;67.67
33191;BME280;19554;42.652;23.364;2022-11-14T11:49:51;95399.03;;;9.01;67.59
33191;BME280;19554;42.652;23.364;2022-11-14T11:55:03;95411.69;;;9.26;67.47
33191;BME280;19554;42.652;23.364;2022-11-14T11:57:32;95381.53;;;9.15;67.24
33191;BME280;19554;42.652;23.364;2022-11-14T12:00:13;95285.41;;;8.59;66.97
33191;BME280;19554;42.652;23.364;2022-11-14T12:02:41;95405.59;;;9.36;67.09
33191;BME280;19554;42.652;23.364;2022-11-14T12:05:32;95401.91;;;9.42;67.09
33191;BME280;19554;42.652;23.364;2022-11-14T12:08:04;95387.53;;;9.48;66.78
33191;BME280;19554;42.652;23.364;2022-11-14T12:10:36;95398.25;;;9.63;66.64
33191;BME280;19554;42.652;23.364;2022-11-14T12:13:13;95397.19;;;9.64;66.46
33191;BME280;19554;42.652;23.364;2022-11-14T12:29:37;95375.91;;;9.80;66.21
33191;BME280;19554;42.652;23.364;2022-11-14T12:32:12;95309.72;;;9.46;65.89
33191;BME280;19554;42.652;23.364;2022-11-14T12:34:41;95302.28;;;9.48;66.00
33191;BME280;19554;42.652;23.364;2022-11-14T12:37:21;95371.69;;;9.99;65.40
33191;BME280;19554;42.652;23.364;2022-11-14T12:40:05;95373.28;;;10.10;65.16
33191;BME280;19554;42.652;23.364;2022-11-14T12:42:31;95356.22;;;10.11;64.94
33191;BME280;19554;42.652;23.364;2022-11-14T12:44:58;95356.75;;;10.24;64.89
33191;BME280;19554;42.652;23.364;2022-11-14T12:47:27;95366.66;;;10.33;64.58
33191;BME280;19554;42.652;23.364;2022-11-14T13:00:12;95356.50;;;10.56;63.51
33191;BME280;19554;42.652;23.364;2022-11-14T13:10:58;95232.47;;;9.92;63.23
33191;BME280;19554;42.652;23.364;2022-11-14T13:13:24;95345.03;;;10.65;63.40
33191;BME280;19554;42.652;23.364;2022-11-14T13:16:25;95343.69;;;10.63;63.36
33191;BME280;19554;42.652;23.364;2022-11-14T13:19:19;95336.75;;;10.62;63.54
33191;BME280;19554;42.652;23.364;2022-11-14T13:27:30;95303.69;;;10.48;63.41
33191;BME280;19554;42.652;23.364;2022-11-14T13:29:56;95258.03;;;10.18;63.37
33191;BME280;19554;42.652;23.364;2022-11-14T13:44:22;95322.06;;;10.59;63.80
33191;BME280;19554;42.652;23.364;2022-11-14T13:52:20;95326.88;;;10.62;63.79
33191;BME280;19554;42.652;23.364;2022-11-14T13:54:48;95320.47;;;10.58;63.86
33191;BME280;19554;42.652;23.364;2022-11-14T14:00:09;95318.91;;;10.47;64.66
33191;BME280;19554;42.652;23.364;2022-11-14T14:05:46;95319.16;;;10.35;65.06
33191;BME280;19554;42.652;23.364;2022-11-14T14:10:58;95315.16;;;10.28;65.54
33191;BME280;19554;42.652;23.364;2022-11-14T14:16:12;95302.88;;;10.16;65.76
33191;BME280;19554;42.652;23.364;2022-11-14T14:21:31;95308.47;;;10.10;66.29
33191;BME280;19554;42.652;23.364;2022-11-14T14:31:52;95295.69;;;9.81;67.17
33191;BME280;19554;42.652;23.364;2022-11-14T14:34:30;95308.44;;;9.84;67.37
33191;BME280;19554;42.652;23.364;2022-11-14T14:36:56;95307.13;;;9.87;67.28
33191;BME280;19554;42.652;23.364;2022-11-14T14:39:24;95302.88;;;9.86;67.30
33191;BME280;19554;42.652;23.364;2022-11-14T14:41:51;95309.78;;;9.87;67.46
33191;BME280;19554;42.652;23.364;2022-11-14T14:46:48;95296.47;;;9.87;67.49
33191;BME280;19554;42.652;23.364;2022-11-14T14:49:21;95300.47;;;9.89;67.44
33191;BME280;19554;42.652;23.364;2022-11-14T14:51:46;95296.47;;;9.92;67.29
33191;BME280;19554;42.652;23.364;2022-11-14T14:54:38;95296.75;;;9.95;67.22
33191;BME280;19554;42.652;23.364;2022-11-14T14:57:04;95298.06;;;9.93;67.32
33191;BME280;19554;42.652;23.364;2022-11-14T14:59:29;95234.59;;;9.49;67.36
33191;BME280;19554;42.652;23.364;2022-11-14T15:01:56;95290.06;;;9.88;67.56
33191;BME280;19554;42.652;23.364;2022-11-14T15:04:24;95238.59;;;9.52;67.47
33191;BME280;19554;42.652;23.364;2022-11-14T15:06:50;95281.00;;;9.79;67.60
33191;BME280;19554;42.652;23.364;2022-11-14T15:09:22;95293.28;;;9.85;67.65
33191;BME280;19554;42.652;23.364;2022-11-14T15:11:52;95298.84;;;9.83;67.49